Decoded Metar for LFBL (LIMOGES in FRANCE) (IATA:LIG) | Meteo·Mobile Aviation Weather
aviador You're here:

LFBL Decoded Metar

LIMOGES in FRANCE
Report Time2019-02-22 00:30:00
UTC Time2019-02-22 00:42:24
Flight Rules vfr VFR
Wind050° at 06 kt
W.Decomp.*RWY 03: 5.6 kt HW 2.2 kt RCW
W.Rank050° ranks 2
Current wind is below 050° avg. (6.3)
Visibility9999 m
Phenomena:N/A
Clouds:N/A
Expected CloudBase > 3,200 ft AGL from Temp-Dew spread
CeilingNone
Temp09°C (ISA -3)
Dew Point01°C (58% RH)
AAT5.0°C
QNH1031 hPa
Density Alt404 ft
Elevation1,319 ft
Report Wrong Elevation
Raw Report
LFBL 220030Z AUTO 05006KT CAVOK 09/01 Q1031 NOSIG=

Extra information for LFBL:More info

Metar Taf Metar & Taf Last 4 Metars F.Rules Stats Wind Profile Meteogram Temp Stats Airport Information Weather charts Add Link Nearby VenuesMetar ALERT Operation Metar Decoded Social comments